sensor_id;sensor_type;location;lat;lon;timestamp;P1;durP1;ratioP1;P2;durP2;ratioP2
24631;SDS011;59977;48.782;9.190;2023-06-10T00:00:13;7.65;;;5.03;;
24631;SDS011;59977;48.782;9.190;2023-06-10T00:02:40;15.07;;;4.90;;
24631;SDS011;59977;48.782;9.190;2023-06-10T00:05:07;9.00;;;4.93;;
24631;SDS011;59977;48.782;9.190;2023-06-10T00:07:34;7.20;;;4.88;;
24631;SDS011;59977;48.782;9.190;2023-06-10T00:10:03;7.07;;;5.10;;
24631;SDS011;59977;48.782;9.190;2023-06-10T00:12:32;5.57;;;4.80;;
24631;SDS011;59977;48.782;9.190;2023-06-10T00:15:02;10.13;;;4.80;;
24631;SDS011;59977;48.782;9.190;2023-06-10T00:17:29;7.90;;;5.13;;
24631;SDS011;59977;48.782;9.190;2023-06-10T00:19:56;9.10;;;5.35;;
24631;SDS011;59977;48.782;9.190;2023-06-10T00:22:22;8.38;;;5.32;;
24631;SDS011;59977;48.782;9.190;2023-06-10T00:24:49;9.82;;;5.25;;
24631;SDS011;59977;48.782;9.190;2023-06-10T00:27:16;8.35;;;4.85;;
24631;SDS011;59977;48.782;9.190;2023-06-10T00:29:42;7.82;;;4.78;;
24631;SDS011;59977;48.782;9.190;2023-06-10T00:32:08;10.73;;;5.57;;
24631;SDS011;59977;48.782;9.190;2023-06-10T00:34:34;8.35;;;5.60;;
24631;SDS011;59977;48.782;9.190;2023-06-10T00:37:00;11.00;;;5.95;;
24631;SDS011;59977;48.782;9.190;2023-06-10T00:39:26;10.13;;;5.47;;
24631;SDS011;59977;48.782;9.190;2023-06-10T00:41:52;8.75;;;5.57;;
24631;SDS011;59977;48.782;9.190;2023-06-10T00:44:18;12.93;;;5.35;;
24631;SDS011;59977;48.782;9.190;2023-06-10T00:46:44;15.05;;;5.85;;
24631;SDS011;59977;48.782;9.190;2023-06-10T00:49:11;18.40;;;5.38;;
24631;SDS011;59977;48.782;9.190;2023-06-10T00:51:37;8.98;;;5.20;;
24631;SDS011;59977;48.782;9.190;2023-06-10T00:54:04;9.75;;;5.55;;
24631;SDS011;59977;48.782;9.190;2023-06-10T00:56:30;7.25;;;5.10;;
24631;SDS011;59977;48.782;9.190;2023-06-10T00:58:57;7.45;;;5.20;;
24631;SDS011;59977;48.782;9.190;2023-06-10T01:01:24;7.53;;;5.00;;
24631;SDS011;59977;48.782;9.190;2023-06-10T01:03:50;6.53;;;5.18;;
24631;SDS011;59977;48.782;9.190;2023-06-10T01:09:12;8.05;;;5.38;;
24631;SDS011;59977;48.782;9.190;2023-06-10T01:11:48;6.93;;;5.07;;
24631;SDS011;59977;48.782;9.190;2023-06-10T01:14:23;6.95;;;5.00;;
24631;SDS011;59977;48.782;9.190;2023-06-10T01:16:49;6.60;;;5.28;;
24631;SDS011;59977;48.782;9.190;2023-06-10T01:19:18;8.27;;;5.00;;
24631;SDS011;59977;48.782;9.190;2023-06-10T01:21:44;9.18;;;4.82;;
24631;SDS011;59977;48.782;9.190;2023-06-10T01:24:13;7.55;;;5.40;;
24631;SDS011;59977;48.782;9.190;2023-06-10T01:26:43;6.40;;;4.80;;
24631;SDS011;59977;48.782;9.190;2023-06-10T01:29:20;9.48;;;5.20;;
24631;SDS011;59977;48.782;9.190;2023-06-10T01:32:14;9.30;;;5.30;;
24631;SDS011;59977;48.782;9.190;2023-06-10T01:34:43;6.78;;;4.60;;
24631;SDS011;59977;48.782;9.190;2023-06-10T01:37:10;9.80;;;5.30;;
24631;SDS011;59977;48.782;9.190;2023-06-10T01:39:38;7.65;;;5.35;;
24631;SDS011;59977;48.782;9.190;2023-06-10T01:42:05;6.22;;;5.10;;
24631;SDS011;59977;48.782;9.190;2023-06-10T01:44:31;7.90;;;5.70;;
24631;SDS011;59977;48.782;9.190;2023-06-10T01:46:57;9.20;;;5.20;;
24631;SDS011;59977;48.782;9.190;2023-06-10T01:49:23;6.57;;;5.15;;
24631;SDS011;59977;48.782;9.190;2023-06-10T01:51:49;9.63;;;5.55;;
24631;SDS011;59977;48.782;9.190;2023-06-10T01:54:15;11.07;;;5.63;;
24631;SDS011;59977;48.782;9.190;2023-06-10T01:56:41;6.32;;;5.20;;
24631;SDS011;59977;48.782;9.190;2023-06-10T01:59:07;8.73;;;5.60;;
24631;SDS011;59977;48.782;9.190;2023-06-10T02:01:33;9.23;;;5.40;;
24631;SDS011;59977;48.782;9.190;2023-06-10T02:03:58;9.13;;;5.47;;
24631;SDS011;59977;48.782;9.190;2023-06-10T02:06:24;11.23;;;5.20;;
24631;SDS011;59977;48.782;9.190;2023-06-10T02:08:50;7.63;;;5.28;;
24631;SDS011;59977;48.782;9.190;2023-06-10T02:11:16;8.63;;;5.50;;
24631;SDS011;59977;48.782;9.190;2023-06-10T02:13:42;8.48;;;5.28;;
24631;SDS011;59977;48.782;9.190;2023-06-10T02:16:08;9.23;;;5.10;;
24631;SDS011;59977;48.782;9.190;2023-06-10T02:18:38;6.43;;;5.65;;
24631;SDS011;59977;48.782;9.190;2023-06-10T02:21:05;10.02;;;6.03;;
24631;SDS011;59977;48.782;9.190;2023-06-10T02:23:32;8.18;;;5.70;;
24631;SDS011;59977;48.782;9.190;2023-06-10T02:25:58;6.50;;;5.72;;
24631;SDS011;59977;48.782;9.190;2023-06-10T02:28:23;8.00;;;5.43;;
24631;SDS011;59977;48.782;9.190;2023-06-10T02:30:49;7.45;;;5.88;;
24631;SDS011;59977;48.782;9.190;2023-06-10T02:33:15;8.77;;;5.93;;
24631;SDS011;59977;48.782;9.190;2023-06-10T02:35:42;11.32;;;6.10;;
24631;SDS011;59977;48.782;9.190;2023-06-10T02:38:08;9.02;;;5.93;;
24631;SDS011;59977;48.782;9.190;2023-06-10T02:40:34;8.85;;;5.10;;
24631;SDS011;59977;48.782;9.190;2023-06-10T02:43:00;9.43;;;5.07;;
24631;SDS011;59977;48.782;9.190;2023-06-10T02:45:26;8.10;;;5.18;;
24631;SDS011;59977;48.782;9.190;2023-06-10T02:47:52;9.70;;;5.82;;
24631;SDS011;59977;48.782;9.190;2023-06-10T02:50:18;7.63;;;5.55;;
24631;SDS011;59977;48.782;9.190;2023-06-10T02:52:44;9.65;;;5.60;;
24631;SDS011;59977;48.782;9.190;2023-06-10T02:55:10;6.70;;;5.38;;
24631;SDS011;59977;48.782;9.190;2023-06-10T02:57:36;8.18;;;5.78;;
24631;SDS011;59977;48.782;9.190;2023-06-10T03:00:02;11.63;;;5.45;;
24631;SDS011;59977;48.782;9.190;2023-06-10T03:02:35;7.03;;;5.28;;
24631;SDS011;59977;48.782;9.190;2023-06-10T03:05:01;7.30;;;5.47;;
24631;SDS011;59977;48.782;9.190;2023-06-10T03:07:28;8.30;;;5.72;;
24631;SDS011;59977;48.782;9.190;2023-06-10T03:09:54;7.65;;;5.70;;
24631;SDS011;59977;48.782;9.190;2023-06-10T03:12:19;9.80;;;5.28;;
24631;SDS011;59977;48.782;9.190;2023-06-10T03:14:45;10.73;;;5.50;;
24631;SDS011;59977;48.782;9.190;2023-06-10T03:17:11;6.32;;;5.20;;
24631;SDS011;59977;48.782;9.190;2023-06-10T03:19:37;6.63;;;4.82;;
24631;SDS011;59977;48.782;9.190;2023-06-10T03:22:07;11.82;;;5.35;;
24631;SDS011;59977;48.782;9.190;2023-06-10T03:24:34;10.55;;;4.95;;
24631;SDS011;59977;48.782;9.190;2023-06-10T03:27:00;6.25;;;4.97;;
24631;SDS011;59977;48.782;9.190;2023-06-10T03:29:27;6.47;;;4.90;;
24631;SDS011;59977;48.782;9.190;2023-06-10T03:31:52;6.13;;;4.80;;
24631;SDS011;59977;48.782;9.190;2023-06-10T03:34:18;6.05;;;4.80;;
24631;SDS011;59977;48.782;9.190;2023-06-10T03:36:44;7.32;;;5.00;;
24631;SDS011;59977;48.782;9.190;2023-06-10T03:39:10;10.77;;;5.07;;
24631;SDS011;59977;48.782;9.190;2023-06-10T03:41:36;8.63;;;5.10;;
24631;SDS011;59977;48.782;9.190;2023-06-10T03:44:02;7.00;;;4.53;;
24631;SDS011;59977;48.782;9.190;2023-06-10T03:46:28;8.10;;;4.60;;
24631;SDS011;59977;48.782;9.190;2023-06-10T03:48:54;8.70;;;5.35;;
24631;SDS011;59977;48.782;9.190;2023-06-10T03:51:20;7.68;;;4.93;;
24631;SDS011;59977;48.782;9.190;2023-06-10T03:53:47;7.80;;;4.55;;
24631;SDS011;59977;48.782;9.190;2023-06-10T03:56:13;5.93;;;4.78;;
24631;SDS011;59977;48.782;9.190;2023-06-10T03:58:39;7.68;;;4.80;;
24631;SDS011;59977;48.782;9.190;2023-06-10T04:01:05;6.50;;;4.47;;
24631;SDS011;59977;48.782;9.190;2023-06-10T04:03:32;6.55;;;4.55;;
24631;SDS011;59977;48.782;9.190;2023-06-10T04:05:58;6.57;;;4.90;;
24631;SDS011;59977;48.782;9.190;2023-06-10T04:08:24;7.30;;;4.38;;
24631;SDS011;59977;48.782;9.190;2023-06-10T04:10:50;6.75;;;4.55;;
24631;SDS011;59977;48.782;9.190;2023-06-10T04:13:16;7.45;;;4.75;;
24631;SDS011;59977;48.782;9.190;2023-06-10T04:15:44;8.32;;;5.97;;
24631;SDS011;59977;48.782;9.190;2023-06-10T04:18:10;7.00;;;5.18;;
24631;SDS011;59977;48.782;9.190;2023-06-10T04:20:36;9.18;;;5.18;;
24631;SDS011;59977;48.782;9.190;2023-06-10T04:23:02;5.43;;;4.80;;
24631;SDS011;59977;48.782;9.190;2023-06-10T04:25:28;10.80;;;4.93;;
24631;SDS011;59977;48.782;9.190;2023-06-10T04:27:54;8.10;;;5.05;;
24631;SDS011;59977;48.782;9.190;2023-06-10T04:30:21;9.05;;;5.07;;
24631;SDS011;59977;48.782;9.190;2023-06-10T04:32:47;8.73;;;5.18;;
24631;SDS011;59977;48.782;9.190;2023-06-10T04:35:13;7.60;;;5.05;;
24631;SDS011;59977;48.782;9.190;2023-06-10T04:37:39;8.73;;;5.07;;
24631;SDS011;59977;48.782;9.190;2023-06-10T04:40:06;5.65;;;4.68;;
24631;SDS011;59977;48.782;9.190;2023-06-10T04:42:33;6.88;;;5.38;;
24631;SDS011;59977;48.782;9.190;2023-06-10T04:44:59;5.97;;;4.88;;
24631;SDS011;59977;48.782;9.190;2023-06-10T04:47:25;6.72;;;4.93;;
24631;SDS011;59977;48.782;9.190;2023-06-10T04:49:51;5.78;;;4.85;;
24631;SDS011;59977;48.782;9.190;2023-06-10T04:57:29;8.65;;;5.30;;
24631;SDS011;59977;48.782;9.190;2023-06-10T04:59:55;7.00;;;4.75;;
24631;SDS011;59977;48.782;9.190;2023-06-10T05:02:21;5.78;;;4.68;;
24631;SDS011;59977;48.782;9.190;2023-06-10T05:04:47;11.65;;;5.30;;
24631;SDS011;59977;48.782;9.190;2023-06-10T05:07:13;8.98;;;5.32;;
24631;SDS011;59977;48.782;9.190;2023-06-10T05:09:39;9.93;;;5.00;;
24631;SDS011;59977;48.782;9.190;2023-06-10T05:12:05;6.38;;;4.75;;
24631;SDS011;59977;48.782;9.190;2023-06-10T05:14:31;6.65;;;5.03;;
24631;SDS011;59977;48.782;9.190;2023-06-10T05:16:57;8.07;;;4.93;;
24631;SDS011;59977;48.782;9.190;2023-06-10T05:19:23;6.53;;;4.70;;
24631;SDS011;59977;48.782;9.190;2023-06-10T05:21:50;7.30;;;4.75;;
24631;SDS011;59977;48.782;9.190;2023-06-10T05:24:16;9.05;;;5.03;;
24631;SDS011;59977;48.782;9.190;2023-06-10T05:26:42;6.78;;;5.15;;
24631;SDS011;59977;48.782;9.190;2023-06-10T05:29:08;8.18;;;4.90;;
24631;SDS011;59977;48.782;9.190;2023-06-10T05:31:34;8.85;;;4.90;;
24631;SDS011;59977;48.782;9.190;2023-06-10T05:34:00;10.85;;;5.20;;
24631;SDS011;59977;48.782;9.190;2023-06-10T05:36:25;7.30;;;5.13;;
24631;SDS011;59977;48.782;9.190;2023-06-10T05:38:52;9.30;;;4.93;;
24631;SDS011;59977;48.782;9.190;2023-06-10T05:41:18;6.25;;;4.95;;
24631;SDS011;59977;48.782;9.190;2023-06-10T05:43:45;6.63;;;4.30;;
24631;SDS011;59977;48.782;9.190;2023-06-10T05:46:11;6.90;;;4.13;;
24631;SDS011;59977;48.782;9.190;2023-06-10T05:48:37;5.97;;;4.72;;
24631;SDS011;59977;48.782;9.190;2023-06-10T05:51:03;5.30;;;4.80;;
24631;SDS011;59977;48.782;9.190;2023-06-10T05:53:29;5.90;;;4.43;;
24631;SDS011;59977;48.782;9.190;2023-06-10T05:55:55;8.55;;;4.53;;
24631;SDS011;59977;48.782;9.190;2023-06-10T05:58:22;5.30;;;4.53;;
24631;SDS011;59977;48.782;9.190;2023-06-10T06:00:48;8.30;;;5.03;;
24631;SDS011;59977;48.782;9.190;2023-06-10T06:03:15;9.23;;;4.65;;
24631;SDS011;59977;48.782;9.190;2023-06-10T06:05:41;8.23;;;4.75;;
24631;SDS011;59977;48.782;9.190;2023-06-10T06:08:07;7.93;;;4.60;;
24631;SDS011;59977;48.782;9.190;2023-06-10T06:10:33;7.47;;;4.53;;
24631;SDS011;59977;48.782;9.190;2023-06-10T06:12:59;4.95;;;4.40;;
24631;SDS011;59977;48.782;9.190;2023-06-10T06:15:25;7.45;;;4.75;;
24631;SDS011;59977;48.782;9.190;2023-06-10T06:17:51;6.28;;;4.55;;
24631;SDS011;59977;48.782;9.190;2023-06-10T06:20:18;7.30;;;5.00;;
24631;SDS011;59977;48.782;9.190;2023-06-10T06:22:44;5.35;;;4.78;;
24631;SDS011;59977;48.782;9.190;2023-06-10T06:25:10;6.93;;;4.90;;
24631;SDS011;59977;48.782;9.190;2023-06-10T06:27:36;6.97;;;4.53;;
24631;SDS011;59977;48.782;9.190;2023-06-10T06:30:02;7.78;;;4.47;;
24631;SDS011;59977;48.782;9.190;2023-06-10T06:32:28;6.10;;;4.60;;
24631;SDS011;59977;48.782;9.190;2023-06-10T06:34:54;7.35;;;4.72;;
24631;SDS011;59977;48.782;9.190;2023-06-10T06:37:24;5.97;;;4.68;;
24631;SDS011;59977;48.782;9.190;2023-06-10T06:39:53;8.05;;;4.68;;
24631;SDS011;59977;48.782;9.190;2023-06-10T06:42:19;6.70;;;4.55;;
24631;SDS011;59977;48.782;9.190;2023-06-10T06:44:46;6.75;;;4.43;;
24631;SDS011;59977;48.782;9.190;2023-06-10T06:47:12;7.47;;;4.57;;
24631;SDS011;59977;48.782;9.190;2023-06-10T06:49:38;5.18;;;4.55;;
24631;SDS011;59977;48.782;9.190;2023-06-10T06:52:04;7.90;;;4.95;;
24631;SDS011;59977;48.782;9.190;2023-06-10T06:54:30;4.95;;;4.38;;
24631;SDS011;59977;48.782;9.190;2023-06-10T06:56:56;11.50;;;4.80;;
24631;SDS011;59977;48.782;9.190;2023-06-10T06:59:22;6.78;;;4.20;;
24631;SDS011;59977;48.782;9.190;2023-06-10T07:01:50;8.57;;;4.80;;
24631;SDS011;59977;48.782;9.190;2023-06-10T07:04:18;5.63;;;4.35;;
24631;SDS011;59977;48.782;9.190;2023-06-10T07:06:46;7.38;;;4.93;;
24631;SDS011;59977;48.782;9.190;2023-06-10T07:09:15;5.47;;;4.50;;
24631;SDS011;59977;48.782;9.190;2023-06-10T07:11:41;12.88;;;4.72;;
24631;SDS011;59977;48.782;9.190;2023-06-10T07:14:07;7.15;;;4.38;;
24631;SDS011;59977;48.782;9.190;2023-06-10T07:16:33;9.73;;;4.43;;
24631;SDS011;59977;48.782;9.190;2023-06-10T07:18:59;7.55;;;4.30;;
24631;SDS011;59977;48.782;9.190;2023-06-10T07:21:25;5.10;;;4.10;;
24631;SDS011;59977;48.782;9.190;2023-06-10T07:23:53;7.00;;;4.70;;
24631;SDS011;59977;48.782;9.190;2023-06-10T07:26:21;9.75;;;4.65;;
24631;SDS011;59977;48.782;9.190;2023-06-10T07:28:47;5.57;;;4.50;;
24631;SDS011;59977;48.782;9.190;2023-06-10T07:31:13;11.15;;;4.55;;
24631;SDS011;59977;48.782;9.190;2023-06-10T07:33:39;7.93;;;4.75;;
24631;SDS011;59977;48.782;9.190;2023-06-10T07:36:05;10.30;;;4.50;;
24631;SDS011;59977;48.782;9.190;2023-06-10T07:38:31;5.10;;;4.40;;
24631;SDS011;59977;48.782;9.190;2023-06-10T07:40:57;7.13;;;4.53;;
24631;SDS011;59977;48.782;9.190;2023-06-10T07:43:23;5.35;;;4.30;;
24631;SDS011;59977;48.782;9.190;2023-06-10T07:45:50;6.90;;;4.30;;
24631;SDS011;59977;48.782;9.190;2023-06-10T07:48:16;8.50;;;4.32;;
24631;SDS011;59977;48.782;9.190;2023-06-10T07:50:42;9.32;;;4.20;;
24631;SDS011;59977;48.782;9.190;2023-06-10T07:53:08;6.07;;;4.10;;
24631;SDS011;59977;48.782;9.190;2023-06-10T07:55:34;6.38;;;3.95;;
24631;SDS011;59977;48.782;9.190;2023-06-10T07:58:00;6.38;;;4.30;;
24631;SDS011;59977;48.782;9.190;2023-06-10T08:00:26;7.85;;;4.70;;
24631;SDS011;59977;48.782;9.190;2023-06-10T08:02:52;6.28;;;4.50;;
24631;SDS011;59977;48.782;9.190;2023-06-10T08:05:18;5.63;;;4.47;;
24631;SDS011;59977;48.782;9.190;2023-06-10T08:07:45;9.20;;;4.32;;
24631;SDS011;59977;48.782;9.190;2023-06-10T08:10:11;6.20;;;4.55;;
24631;SDS011;59977;48.782;9.190;2023-06-10T08:12:37;6.28;;;4.78;;
24631;SDS011;59977;48.782;9.190;2023-06-10T08:15:03;8.93;;;4.28;;
24631;SDS011;59977;48.782;9.190;2023-06-10T08:17:29;5.60;;;4.28;;
24631;SDS011;59977;48.782;9.190;2023-06-10T08:19:56;7.70;;;4.90;;
24631;SDS011;59977;48.782;9.190;2023-06-10T08:22:22;7.45;;;4.22;;
24631;SDS011;59977;48.782;9.190;2023-06-10T08:24:48;5.93;;;3.85;;
24631;SDS011;59977;48.782;9.190;2023-06-10T08:27:14;5.30;;;4.38;;
24631;SDS011;59977;48.782;9.190;2023-06-10T08:29:40;4.78;;;4.22;;
24631;SDS011;59977;48.782;9.190;2023-06-10T08:32:06;6.47;;;4.00;;
24631;SDS011;59977;48.782;9.190;2023-06-10T08:34:35;5.32;;;4.25;;
24631;SDS011;59977;48.782;9.190;2023-06-10T08:37:02;5.80;;;4.22;;
24631;SDS011;59977;48.782;9.190;2023-06-10T08:39:28;7.55;;;4.35;;
24631;SDS011;59977;48.782;9.190;2023-06-10T08:42:39;6.88;;;3.97;;
24631;SDS011;59977;48.782;9.190;2023-06-10T08:44:45;7.78;;;4.32;;
24631;SDS011;59977;48.782;9.190;2023-06-10T08:47:16;4.68;;;4.10;;
24631;SDS011;59977;48.782;9.190;2023-06-10T08:49:45;4.78;;;3.80;;
24631;SDS011;59977;48.782;9.190;2023-06-10T08:52:14;6.45;;;3.85;;
24631;SDS011;59977;48.782;9.190;2023-06-10T08:54:46;4.97;;;3.83;;
24631;SDS011;59977;48.782;9.190;2023-06-10T08:57:15;4.05;;;3.50;;
24631;SDS011;59977;48.782;9.190;2023-06-10T08:59:41;4.35;;;3.40;;
24631;SDS011;59977;48.782;9.190;2023-06-10T09:02:07;5.40;;;3.70;;
24631;SDS011;59977;48.782;9.190;2023-06-10T09:04:34;5.28;;;3.97;;
24631;SDS011;59977;48.782;9.190;2023-06-10T09:07:00;5.90;;;3.80;;
24631;SDS011;59977;48.782;9.190;2023-06-10T09:09:27;4.43;;;3.38;;
24631;SDS011;59977;48.782;9.190;2023-06-10T09:11:55;7.25;;;3.83;;
24631;SDS011;59977;48.782;9.190;2023-06-10T09:14:21;5.35;;;3.80;;
24631;SDS011;59977;48.782;9.190;2023-06-10T09:16:48;7.03;;;3.60;;
24631;SDS011;59977;48.782;9.190;2023-06-10T09:19:15;5.72;;;3.70;;
24631;SDS011;59977;48.782;9.190;2023-06-10T09:21:41;6.70;;;3.60;;
24631;SDS011;59977;48.782;9.190;2023-06-10T09:24:07;4.63;;;3.65;;
24631;SDS011;59977;48.782;9.190;2023-06-10T09:26:33;5.85;;;3.70;;
24631;SDS011;59977;48.782;9.190;2023-06-10T09:29:06;4.53;;;3.90;;
24631;SDS011;59977;48.782;9.190;2023-06-10T09:31:37;11.30;;;4.22;;
24631;SDS011;59977;48.782;9.190;2023-06-10T09:34:07;7.40;;;4.10;;
24631;SDS011;59977;48.782;9.190;2023-06-10T09:36:34;5.22;;;3.80;;
24631;SDS011;59977;48.782;9.190;2023-06-10T09:39:01;4.78;;;3.83;;
24631;SDS011;59977;48.782;9.190;2023-06-10T09:41:38;5.88;;;3.70;;
24631;SDS011;59977;48.782;9.190;2023-06-10T09:44:11;11.20;;;3.75;;
24631;SDS011;59977;48.782;9.190;2023-06-10T09:46:37;7.70;;;4.03;;
24631;SDS011;59977;48.782;9.190;2023-06-10T09:49:02;8.25;;;3.78;;
24631;SDS011;59977;48.782;9.190;2023-06-10T09:51:28;4.45;;;3.63;;
24631;SDS011;59977;48.782;9.190;2023-06-10T09:53:54;5.55;;;3.90;;
24631;SDS011;59977;48.782;9.190;2023-06-10T09:56:20;3.90;;;3.42;;
24631;SDS011;59977;48.782;9.190;2023-06-10T09:58:49;6.63;;;4.80;;
24631;SDS011;59977;48.782;9.190;2023-06-10T10:01:17;5.95;;;3.80;;
24631;SDS011;59977;48.782;9.190;2023-06-10T10:03:44;6.57;;;4.20;;
24631;SDS011;59977;48.782;9.190;2023-06-10T10:06:11;7.85;;;4.22;;
24631;SDS011;59977;48.782;9.190;2023-06-10T10:08:37;6.40;;;3.90;;
24631;SDS011;59977;48.782;9.190;2023-06-10T10:11:03;5.45;;;3.72;;
24631;SDS011;59977;48.782;9.190;2023-06-10T10:13:29;6.55;;;3.80;;
24631;SDS011;59977;48.782;9.190;2023-06-10T10:16:00;4.22;;;3.50;;
24631;SDS011;59977;48.782;9.190;2023-06-10T10:18:28;5.70;;;3.75;;
24631;SDS011;59977;48.782;9.190;2023-06-10T10:20:55;10.43;;;3.88;;
24631;SDS011;59977;48.782;9.190;2023-06-10T10:23:34;6.65;;;3.90;;
24631;SDS011;59977;48.782;9.190;2023-06-10T10:26:04;5.53;;;4.00;;
24631;SDS011;59977;48.782;9.190;2023-06-10T10:28:34;5.30;;;3.88;;
24631;SDS011;59977;48.782;9.190;2023-06-10T10:31:02;5.95;;;3.40;;
24631;SDS011;59977;48.782;9.190;2023-06-10T10:36:04;4.30;;;3.63;;
24631;SDS011;59977;48.782;9.190;2023-06-10T10:38:32;6.97;;;3.67;;
24631;SDS011;59977;48.782;9.190;2023-06-10T10:40:58;3.95;;;3.50;;
24631;SDS011;59977;48.782;9.190;2023-06-10T10:43:26;4.50;;;3.63;;
24631;SDS011;59977;48.782;9.190;2023-06-10T10:46:02;4.45;;;3.50;;
24631;SDS011;59977;48.782;9.190;2023-06-10T10:48:37;4.85;;;3.35;;
24631;SDS011;59977;48.782;9.190;2023-06-10T10:51:03;3.95;;;3.30;;
24631;SDS011;59977;48.782;9.190;2023-06-10T10:53:29;6.93;;;3.65;;
24631;SDS011;59977;48.782;9.190;2023-06-10T10:55:59;5.70;;;3.00;;
24631;SDS011;59977;48.782;9.190;2023-06-10T10:58:25;6.18;;;3.50;;
24631;SDS011;59977;48.782;9.190;2023-06-10T11:00:51;6.45;;;3.50;;
24631;SDS011;59977;48.782;9.190;2023-06-10T11:03:17;10.68;;;3.72;;
24631;SDS011;59977;48.782;9.190;2023-06-10T11:05:44;5.55;;;3.60;;
24631;SDS011;59977;48.782;9.190;2023-06-10T11:08:13;6.40;;;3.70;;
24631;SDS011;59977;48.782;9.190;2023-06-10T11:10:40;5.45;;;3.90;;
24631;SDS011;59977;48.782;9.190;2023-06-10T11:13:13;5.93;;;3.80;;
24631;SDS011;59977;48.782;9.190;2023-06-10T11:15:42;6.07;;;4.20;;
24631;SDS011;59977;48.782;9.190;2023-06-10T11:23:47;5.25;;;3.30;;
24631;SDS011;59977;48.782;9.190;2023-06-10T11:26:13;4.72;;;3.83;;
24631;SDS011;59977;48.782;9.190;2023-06-10T11:28:39;6.32;;;3.35;;
24631;SDS011;59977;48.782;9.190;2023-06-10T11:31:06;4.80;;;3.63;;
24631;SDS011;59977;48.782;9.190;2023-06-10T11:33:32;5.57;;;3.53;;
24631;SDS011;59977;48.782;9.190;2023-06-10T11:35:58;5.55;;;3.50;;
24631;SDS011;59977;48.782;9.190;2023-06-10T11:38:24;8.00;;;3.45;;
24631;SDS011;59977;48.782;9.190;2023-06-10T11:40:50;6.50;;;4.00;;
24631;SDS011;59977;48.782;9.190;2023-06-10T11:43:17;7.78;;;3.58;;
24631;SDS011;59977;48.782;9.190;2023-06-10T11:45:43;6.22;;;3.78;;
24631;SDS011;59977;48.782;9.190;2023-06-10T11:48:09;9.00;;;3.53;;
24631;SDS011;59977;48.782;9.190;2023-06-10T11:50:35;5.93;;;3.60;;
24631;SDS011;59977;48.782;9.190;2023-06-10T11:53:02;4.07;;;3.38;;
24631;SDS011;59977;48.782;9.190;2023-06-10T12:03:10;5.18;;;3.67;;
24631;SDS011;59977;48.782;9.190;2023-06-10T12:05:36;8.45;;;3.63;;
24631;SDS011;59977;48.782;9.190;2023-06-10T12:08:11;5.38;;;3.50;;
24631;SDS011;59977;48.782;9.190;2023-06-10T12:10:39;4.95;;;3.67;;
24631;SDS011;59977;48.782;9.190;2023-06-10T12:13:05;5.40;;;3.45;;
24631;SDS011;59977;48.782;9.190;2023-06-10T12:15:32;6.20;;;3.97;;
24631;SDS011;59977;48.782;9.190;2023-06-10T12:17:58;6.97;;;4.13;;
24631;SDS011;59977;48.782;9.190;2023-06-10T12:20:25;3.58;;;3.25;;
24631;SDS011;59977;48.782;9.190;2023-06-10T12:22:52;5.43;;;3.60;;
24631;SDS011;59977;48.782;9.190;2023-06-10T12:25:23;9.30;;;3.72;;
24631;SDS011;59977;48.782;9.190;2023-06-10T12:27:51;5.97;;;3.20;;
24631;SDS011;59977;48.782;9.190;2023-06-10T12:30:22;5.38;;;3.10;;
24631;SDS011;59977;48.782;9.190;2023-06-10T12:32:48;6.78;;;3.00;;
24631;SDS011;59977;48.782;9.190;2023-06-10T12:35:18;4.65;;;2.97;;
24631;SDS011;59977;48.782;9.190;2023-06-10T12:37:55;4.97;;;2.90;;
24631;SDS011;59977;48.782;9.190;2023-06-10T12:40:28;3.47;;;3.10;;
24631;SDS011;59977;48.782;9.190;2023-06-10T12:43:05;4.40;;;3.13;;
24631;SDS011;59977;48.782;9.190;2023-06-10T12:45:37;4.55;;;3.30;;
24631;SDS011;59977;48.782;9.190;2023-06-10T12:50:49;3.35;;;2.90;;
24631;SDS011;59977;48.782;9.190;2023-06-10T12:53:17;4.13;;;3.40;;
24631;SDS011;59977;48.782;9.190;2023-06-10T12:55:43;4.13;;;3.00;;
24631;SDS011;59977;48.782;9.190;2023-06-10T12:58:12;4.45;;;3.45;;
24631;SDS011;59977;48.782;9.190;2023-06-10T13:00:39;3.70;;;2.88;;
24631;SDS011;59977;48.782;9.190;2023-06-10T13:03:04;4.78;;;3.13;;
24631;SDS011;59977;48.782;9.190;2023-06-10T13:05:31;5.95;;;2.90;;
24631;SDS011;59977;48.782;9.190;2023-06-10T13:07:57;5.50;;;3.08;;
24631;SDS011;59977;48.782;9.190;2023-06-10T13:10:24;5.38;;;3.50;;
24631;SDS011;59977;48.782;9.190;2023-06-10T13:12:51;3.58;;;2.90;;
24631;SDS011;59977;48.782;9.190;2023-06-10T13:15:17;6.55;;;3.15;;
24631;SDS011;59977;48.782;9.190;2023-06-10T13:17:43;4.28;;;2.70;;
24631;SDS011;59977;48.782;9.190;2023-06-10T13:20:11;5.57;;;3.00;;
24631;SDS011;59977;48.782;9.190;2023-06-10T13:22:37;3.90;;;2.90;;
24631;SDS011;59977;48.782;9.190;2023-06-10T13:25:03;3.65;;;2.60;;
24631;SDS011;59977;48.782;9.190;2023-06-10T13:27:30;5.47;;;3.03;;
24631;SDS011;59977;48.782;9.190;2023-06-10T13:29:55;5.35;;;2.80;;
24631;SDS011;59977;48.782;9.190;2023-06-10T13:32:21;3.38;;;2.70;;
24631;SDS011;59977;48.782;9.190;2023-06-10T13:34:47;5.55;;;2.88;;
24631;SDS011;59977;48.782;9.190;2023-06-10T13:37:14;3.05;;;2.42;;
24631;SDS011;59977;48.782;9.190;2023-06-10T13:39:42;5.10;;;2.47;;
24631;SDS011;59977;48.782;9.190;2023-06-10T13:42:07;4.32;;;2.75;;
24631;SDS011;59977;48.782;9.190;2023-06-10T13:44:33;4.10;;;2.75;;
24631;SDS011;59977;48.782;9.190;2023-06-10T13:47:01;11.70;;;2.63;;
24631;SDS011;59977;48.782;9.190;2023-06-10T13:49:28;4.20;;;2.53;;
24631;SDS011;59977;48.782;9.190;2023-06-10T13:51:54;4.45;;;2.80;;
24631;SDS011;59977;48.782;9.190;2023-06-10T13:54:20;3.47;;;2.67;;
24631;SDS011;59977;48.782;9.190;2023-06-10T13:56:46;4.03;;;2.80;;
24631;SDS011;59977;48.782;9.190;2023-06-10T13:59:12;7.00;;;2.80;;
24631;SDS011;59977;48.782;9.190;2023-06-10T14:01:38;3.67;;;2.67;;
24631;SDS011;59977;48.782;9.190;2023-06-10T14:04:05;12.30;;;2.95;;
24631;SDS011;59977;48.782;9.190;2023-06-10T14:06:31;2.92;;;2.63;;
24631;SDS011;59977;48.782;9.190;2023-06-10T14:08:58;3.33;;;2.60;;
24631;SDS011;59977;48.782;9.190;2023-06-10T14:11:24;3.35;;;2.78;;
24631;SDS011;59977;48.782;9.190;2023-06-10T14:13:50;4.55;;;2.60;;
24631;SDS011;59977;48.782;9.190;2023-06-10T14:16:16;3.45;;;2.60;;
24631;SDS011;59977;48.782;9.190;2023-06-10T14:18:41;4.68;;;2.60;;
24631;SDS011;59977;48.782;9.190;2023-06-10T14:21:07;4.50;;;2.70;;
24631;SDS011;59977;48.782;9.190;2023-06-10T14:23:33;9.25;;;2.70;;
24631;SDS011;59977;48.782;9.190;2023-06-10T14:25:59;4.97;;;2.70;;
24631;SDS011;59977;48.782;9.190;2023-06-10T14:28:27;4.22;;;3.22;;
24631;SDS011;59977;48.782;9.190;2023-06-10T14:30:53;4.88;;;2.67;;
24631;SDS011;59977;48.782;9.190;2023-06-10T14:33:19;3.47;;;2.88;;
24631;SDS011;59977;48.782;9.190;2023-06-10T14:35:45;3.38;;;2.90;;
24631;SDS011;59977;48.782;9.190;2023-06-10T14:38:11;4.63;;;2.75;;
24631;SDS011;59977;48.782;9.190;2023-06-10T14:40:37;3.33;;;2.80;;
24631;SDS011;59977;48.782;9.190;2023-06-10T14:43:02;6.40;;;2.65;;
24631;SDS011;59977;48.782;9.190;2023-06-10T14:45:34;3.70;;;2.50;;
24631;SDS011;59977;48.782;9.190;2023-06-10T14:48:00;4.38;;;3.08;;
24631;SDS011;59977;48.782;9.190;2023-06-10T14:50:26;10.82;;;3.28;;
24631;SDS011;59977;48.782;9.190;2023-06-10T14:52:51;3.35;;;2.80;;
24631;SDS011;59977;48.782;9.190;2023-06-10T14:55:17;3.40;;;2.92;;
24631;SDS011;59977;48.782;9.190;2023-06-10T14:57:43;3.65;;;2.63;;
24631;SDS011;59977;48.782;9.190;2023-06-10T15:00:09;3.92;;;2.80;;
24631;SDS011;59977;48.782;9.190;2023-06-10T15:02:35;5.15;;;2.92;;
24631;SDS011;59977;48.782;9.190;2023-06-10T15:05:01;5.47;;;3.70;;
24631;SDS011;59977;48.782;9.190;2023-06-10T15:07:28;5.10;;;3.55;;
24631;SDS011;59977;48.782;9.190;2023-06-10T15:09:55;5.30;;;2.75;;